createdAt,value
2023-01-01T00:00:00.912Z,48.3
2023-01-01T00:01:00.678Z,48.4
2023-01-01T00:02:00.695Z,48.3
2023-01-01T00:03:00.614Z,48.5
2023-01-01T00:04:00.777Z,48.6
2023-01-01T00:05:00.630Z,48.5
2023-01-01T00:06:00.752Z,48.3
2023-01-01T00:07:00.636Z,48.1
2023-01-01T00:08:04.664Z,48.0
2023-01-01T00:09:00.670Z,48.0
2023-01-01T00:10:00.645Z,47.8
2023-01-01T00:11:00.609Z,47.7
2023-01-01T00:12:00.794Z,47.6
2023-01-01T00:13:00.672Z,47.5
2023-01-01T00:14:00.638Z,47.4
2023-01-01T00:15:00.638Z,47.5
2023-01-01T00:16:00.660Z,47.5
2023-01-01T00:17:00.742Z,47.6
2023-01-01T00:18:00.777Z,47.7
2023-01-01T00:19:00.642Z,47.8
2023-01-01T00:20:00.664Z,47.9
2023-01-01T00:21:00.635Z,48.1
2023-01-01T00:22:05.653Z,48.1
2023-01-01T00:23:00.647Z,48.2
2023-01-01T00:24:00.865Z,48.3
2023-01-01T00:25:00.706Z,48.3
2023-01-01T00:26:00.664Z,48.4
2023-01-01T00:27:00.717Z,48.2
2023-01-01T00:28:00.617Z,48.2
2023-01-01T00:29:00.711Z,48.1
2023-01-01T00:30:01.090Z,48.1
2023-01-01T00:31:00.692Z,48.2
2023-01-01T00:32:00.807Z,48.2
2023-01-01T00:33:00.637Z,48.0
2023-01-01T00:34:01.450Z,47.9
2023-01-01T00:35:00.652Z,47.9
2023-01-01T00:36:00.809Z,47.9
2023-01-01T00:37:00.637Z,48.2
2023-01-01T00:38:00.635Z,48.2
2023-01-01T00:39:00.644Z,48.1
2023-01-01T00:40:00.642Z,48.0
2023-01-01T00:41:00.696Z,47.8
2023-01-01T00:42:00.839Z,47.8
2023-01-01T00:43:00.608Z,47.8
2023-01-01T00:44:00.605Z,47.7
2023-01-01T00:45:00.674Z,47.7
2023-01-01T00:46:00.729Z,47.8
2023-01-01T00:47:00.727Z,47.7
2023-01-01T00:48:00.824Z,47.7
2023-01-01T00:49:00.727Z,47.6
2023-01-01T00:50:00.667Z,47.5
2023-01-01T00:51:00.711Z,47.3
2023-01-01T00:52:00.631Z,47.0
2023-01-01T00:53:00.645Z,47.0
2023-01-01T00:54:00.883Z,46.8
2023-01-01T00:55:00.653Z,46.6
2023-01-01T00:56:00.687Z,46.4
2023-01-01T00:57:00.767Z,46.5
2023-01-01T00:58:00.657Z,46.5
2023-01-01T00:59:01.706Z,46.5
2023-01-01T01:00:00.807Z,46.5
2023-01-01T01:01:00.768Z,46.4
2023-01-01T01:02:00.822Z,46.4
2023-01-01T01:03:00.657Z,46.3
2023-01-01T01:04:00.635Z,46.4
2023-01-01T01:05:00.655Z,46.4
2023-01-01T01:06:00.737Z,46.4
2023-01-01T01:07:00.651Z,46.5
2023-01-01T01:08:00.632Z,46.4
2023-01-01T01:09:00.671Z,46.4
2023-01-01T01:10:00.631Z,46.3
2023-01-01T01:11:00.652Z,46.3
2023-01-01T01:12:17.811Z,46.4
2023-01-01T01:13:00.668Z,46.4
2023-01-01T01:14:00.723Z,46.4
2023-01-01T01:15:00.653Z,46.4
2023-01-01T01:16:00.650Z,46.4
2023-01-01T01:17:00.691Z,46.2
2023-01-01T01:18:00.764Z,46.4
2023-01-01T01:19:00.702Z,46.4
2023-01-01T01:20:00.697Z,46.5
2023-01-01T01:21:00.612Z,46.5
2023-01-01T01:22:00.675Z,46.5
2023-01-01T01:23:00.652Z,46.4
2023-01-01T01:24:00.774Z,46.4
2023-01-01T01:25:00.603Z,46.5
2023-01-01T01:26:00.680Z,46.6
2023-01-01T01:27:00.797Z,46.7
2023-01-01T01:28:00.628Z,46.7
2023-01-01T01:29:00.664Z,46.8
2023-01-01T01:30:00.834Z,46.9
2023-01-01T01:31:00.667Z,47.1
2023-01-01T01:32:00.632Z,47.2
2023-01-01T01:33:00.711Z,47.2
2023-01-01T01:34:00.627Z,47.2
2023-01-01T01:35:00.714Z,47.2
2023-01-01T01:36:00.766Z,47.0
2023-01-01T01:37:00.636Z,47.0
2023-01-01T01:38:00.717Z,47.2
2023-01-01T01:39:00.758Z,47.2
2023-01-01T01:40:00.639Z,47.1
2023-01-01T01:41:00.666Z,47.1
2023-01-01T01:42:00.900Z,47.1
2023-01-01T01:43:00.677Z,47.2
2023-01-01T01:44:00.681Z,47.1
2023-01-01T01:45:00.702Z,47.2
2023-01-01T01:46:00.764Z,47.3
2023-01-01T01:47:00.664Z,47.3
2023-01-01T01:48:00.763Z,47.4
2023-01-01T01:49:00.744Z,47.5
2023-01-01T01:50:00.615Z,47.5
2023-01-01T01:51:00.644Z,47.7
2023-01-01T01:52:00.648Z,47.7
2023-01-01T01:53:00.634Z,47.7
2023-01-01T01:54:00.778Z,47.7
2023-01-01T01:55:00.644Z,47.8
2023-01-01T01:56:00.650Z,47.8
2023-01-01T01:57:00.795Z,48.0
2023-01-01T01:58:00.749Z,48.2
2023-01-01T01:59:00.606Z,48.2
2023-01-01T02:00:05.233Z,48.3
2023-01-01T02:01:00.914Z,48.5
2023-01-01T02:02:00.804Z,48.5
2023-01-01T02:03:00.700Z,48.4
2023-01-01T02:04:00.673Z,48.4
2023-01-01T02:05:00.628Z,48.5
2023-01-01T02:06:00.924Z,48.7
2023-01-01T02:07:00.661Z,48.6
2023-01-01T02:08:00.650Z,48.6
2023-01-01T02:09:00.667Z,48.7
2023-01-01T02:10:00.634Z,48.6
2023-01-01T02:11:00.607Z,48.8
2023-01-01T02:12:00.800Z,49.0
2023-01-01T02:13:00.631Z,48.9
2023-01-01T02:14:00.636Z,49.0
2023-01-01T02:15:00.661Z,48.9
2023-01-01T02:16:00.643Z,48.8
2023-01-01T02:17:00.633Z,48.9
2023-01-01T02:18:00.802Z,48.9
2023-01-01T02:19:00.632Z,49.0
2023-01-01T02:20:00.661Z,49.0
2023-01-01T02:21:00.651Z,49.0
2023-01-01T02:22:00.646Z,49.1
2023-01-01T02:23:04.257Z,49.3
2023-01-01T02:24:00.738Z,49.3
2023-01-01T02:25:00.660Z,49.2
2023-01-01T02:26:00.684Z,49.0
2023-01-01T02:27:00.667Z,48.9
2023-01-01T02:28:00.755Z,48.9
2023-01-01T02:29:00.661Z,48.8
2023-01-01T02:30:00.780Z,48.9
2023-01-01T02:31:00.722Z,49.1
2023-01-01T02:32:00.679Z,49.0
2023-01-01T02:33:00.723Z,49.1
2023-01-01T02:34:00.662Z,49.0
2023-01-01T02:35:00.692Z,49.0
2023-01-01T02:36:00.811Z,49.2
2023-01-01T02:37:00.668Z,49.3
2023-01-01T02:38:00.682Z,49.3
2023-01-01T02:39:00.707Z,49.4
2023-01-01T02:40:00.701Z,49.4
2023-01-01T02:41:00.623Z,49.5
2023-01-01T02:42:00.721Z,49.6
2023-01-01T02:43:00.933Z,49.5
2023-01-01T02:45:00.644Z,49.4
2023-01-01T02:46:00.701Z,49.5
2023-01-01T02:47:00.653Z,50.0
2023-01-01T02:48:00.742Z,49.8
2023-01-01T02:49:06.204Z,49.7
2023-01-01T02:50:00.602Z,49.7
2023-01-01T02:51:00.679Z,49.5
2023-01-01T02:52:00.617Z,49.5
2023-01-01T02:53:00.677Z,49.4
2023-01-01T02:54:00.767Z,49.3
2023-01-01T02:55:00.707Z,49.3
2023-01-01T02:56:00.710Z,49.2
2023-01-01T02:57:00.727Z,49.2
2023-01-01T02:58:00.773Z,49.1
2023-01-01T02:59:00.663Z,49.3
2023-01-01T03:00:00.741Z,49.3
2023-01-01T03:01:00.780Z,49.3
2023-01-01T03:02:00.831Z,49.4
2023-01-01T03:03:00.787Z,49.3
2023-01-01T03:04:00.686Z,49.3
2023-01-01T03:05:00.739Z,49.3
2023-01-01T03:06:00.938Z,49.3
2023-01-01T03:07:00.643Z,49.3
2023-01-01T03:08:00.649Z,49.3
2023-01-01T03:09:00.654Z,49.5
2023-01-01T03:10:00.667Z,49.4
2023-01-01T03:11:00.649Z,49.3
2023-01-01T03:12:00.773Z,49.4
2023-01-01T03:13:00.689Z,49.5
2023-01-01T03:14:00.636Z,49.5
2023-01-01T03:15:00.607Z,49.5
2023-01-01T03:16:00.752Z,49.5
2023-01-01T03:17:00.614Z,49.4
2023-01-01T03:18:00.763Z,49.4
2023-01-01T03:19:00.608Z,49.5
2023-01-01T03:20:00.633Z,49.5
2023-01-01T03:21:00.609Z,49.5
2023-01-01T03:22:00.676Z,49.6
2023-01-01T03:23:00.641Z,49.7
2023-01-01T03:24:00.729Z,49.7
2023-01-01T03:25:00.607Z,49.7
2023-01-01T03:26:00.713Z,49.5
2023-01-01T03:27:00.680Z,49.3
2023-01-01T03:28:00.757Z,49.2
2023-01-01T03:29:00.676Z,49.0
2023-01-01T03:30:00.869Z,48.9
2023-01-01T03:31:00.756Z,48.5
2023-01-01T03:32:00.752Z,48.5
2023-01-01T03:33:00.687Z,48.4
2023-01-01T03:34:00.689Z,48.4
2023-01-01T03:35:00.641Z,48.3
2023-01-01T03:36:00.882Z,48.3
2023-01-01T03:37:00.657Z,48.2
2023-01-01T03:38:00.647Z,48.3
2023-01-01T03:39:00.671Z,48.3
2023-01-01T03:40:00.708Z,48.2
2023-01-01T03:41:00.680Z,48.3
2023-01-01T03:42:00.783Z,48.4
2023-01-01T03:43:00.767Z,48.3
2023-01-01T03:44:00.863Z,48.2
2023-01-01T03:45:00.656Z,48.1
2023-01-01T03:46:00.609Z,48.0
2023-01-01T03:47:00.701Z,47.9
2023-01-01T03:48:00.855Z,47.8
2023-01-01T03:49:04.094Z,47.7
2023-01-01T03:50:00.654Z,47.7
2023-01-01T03:51:00.661Z,47.7
2023-01-01T03:52:00.668Z,47.6
2023-01-01T03:53:00.611Z,47.5
2023-01-01T03:54:00.783Z,47.6
2023-01-01T03:55:00.690Z,47.5
2023-01-01T03:56:00.650Z,47.4
2023-01-01T03:57:00.656Z,47.4
2023-01-01T03:58:00.722Z,47.3
2023-01-01T03:59:00.761Z,47.3
2023-01-01T04:00:00.800Z,47.3
2023-01-01T04:01:00.782Z,47.3
2023-01-01T04:02:00.765Z,47.4
2023-01-01T04:03:00.765Z,47.3
2023-01-01T04:04:00.639Z,47.3
2023-01-01T04:05:00.664Z,47.4
2023-01-01T04:06:00.720Z,47.4
2023-01-01T04:07:14.285Z,47.5
2023-01-01T04:08:00.676Z,47.6
2023-01-01T04:09:00.609Z,47.7
2023-01-01T04:10:00.624Z,47.7
2023-01-01T04:11:00.615Z,47.7
2023-01-01T04:12:00.822Z,47.6
2023-01-01T04:13:00.669Z,47.6
2023-01-01T04:14:00.806Z,47.8
2023-01-01T04:15:00.674Z,47.9
2023-01-01T04:16:00.724Z,47.9
2023-01-01T04:17:00.706Z,47.9
2023-01-01T04:18:00.794Z,48.0
2023-01-01T04:19:00.642Z,48.1
2023-01-01T04:20:00.646Z,48.0
2023-01-01T04:21:00.658Z,48.1
2023-01-01T04:22:00.639Z,48.2
2023-01-01T04:23:00.680Z,48.2
2023-01-01T04:24:00.810Z,48.2
2023-01-01T04:25:00.665Z,48.2
2023-01-01T04:26:00.678Z,48.1
2023-01-01T04:27:00.645Z,48.1
2023-01-01T04:28:00.658Z,48.0
2023-01-01T04:29:00.774Z,48.1
2023-01-01T04:30:00.772Z,48.0
2023-01-01T04:32:00.605Z,47.8
2023-01-01T04:33:00.689Z,47.9
2023-01-01T04:34:00.740Z,47.8
2023-01-01T04:35:00.702Z,48.0
2023-01-01T04:36:00.817Z,48.0
2023-01-01T04:37:00.634Z,48.0
2023-01-01T04:38:00.619Z,48.0
2023-01-01T04:39:00.639Z,47.9
2023-01-01T04:40:00.641Z,47.6
2023-01-01T04:41:00.645Z,47.1
2023-01-01T04:42:00.784Z,46.7
2023-01-01T04:43:00.645Z,46.1
2023-01-01T04:44:00.783Z,45.5
2023-01-01T04:45:00.671Z,45.0
2023-01-01T04:46:00.764Z,44.7
2023-01-01T04:47:00.638Z,44.9
2023-01-01T04:48:00.723Z,45.0
2023-01-01T04:49:00.638Z,45.2
2023-01-01T04:50:00.663Z,45.3
2023-01-01T04:51:00.637Z,45.3
2023-01-01T04:52:00.642Z,45.4
2023-01-01T04:53:00.648Z,45.5
2023-01-01T04:54:00.810Z,45.5
2023-01-01T04:55:00.742Z,45.5
2023-01-01T04:56:00.767Z,45.5
2023-01-01T04:57:00.665Z,45.6
2023-01-01T04:58:00.699Z,45.5
2023-01-01T04:59:00.768Z,45.6
2023-01-01T05:00:00.821Z,45.6
2023-01-01T05:01:00.823Z,45.6
2023-01-01T05:02:00.858Z,45.6
2023-01-01T05:03:00.750Z,45.5
2023-01-01T05:04:00.778Z,45.5
2023-01-01T05:05:00.644Z,45.4
2023-01-01T05:06:00.867Z,45.5
2023-01-01T05:07:00.710Z,45.5
2023-01-01T05:08:00.634Z,45.5
2023-01-01T05:09:00.685Z,45.4
2023-01-01T05:10:00.636Z,45.4
2023-01-01T05:11:00.608Z,45.3
2023-01-01T05:12:00.828Z,45.4
2023-01-01T05:13:00.636Z,45.4
2023-01-01T05:14:00.661Z,45.3
2023-01-01T05:15:00.755Z,45.3
2023-01-01T05:16:00.619Z,45.3
2023-01-01T05:17:00.647Z,45.2
2023-01-01T05:18:00.794Z,45.2
2023-01-01T05:19:00.678Z,45.1
2023-01-01T05:20:00.639Z,45.0
2023-01-01T05:21:00.696Z,44.8
2023-01-01T05:22:05.363Z,44.6
2023-01-01T05:23:00.691Z,44.5
2023-01-01T05:24:00.847Z,44.3
2023-01-01T05:25:00.695Z,44.3
2023-01-01T05:26:00.712Z,44.0
2023-01-01T05:27:00.640Z,43.7
2023-01-01T05:28:00.649Z,43.5
2023-01-01T05:29:00.662Z,43.4
2023-01-01T05:30:00.923Z,43.3
2023-01-01T05:31:00.657Z,43.1
2023-01-01T05:32:00.697Z,43.0
2023-01-01T05:33:00.637Z,42.8
2023-01-01T05:35:00.632Z,42.4
2023-01-01T05:36:00.739Z,42.2
2023-01-01T05:37:00.667Z,43.1
2023-01-01T05:38:00.601Z,41.6
2023-01-01T05:39:00.647Z,39.3
2023-01-01T05:40:00.660Z,37.0
2023-01-01T05:41:00.648Z,34.5
2023-01-01T05:42:00.830Z,32.4
2023-01-01T05:43:00.642Z,30.3
2023-01-01T05:44:00.665Z,28.8
2023-01-01T05:45:00.768Z,27.5
2023-01-01T05:46:00.771Z,26.6
2023-01-01T05:47:00.639Z,24.7
2023-01-01T05:48:00.967Z,23.8
2023-01-01T05:49:00.786Z,22.2
2023-01-01T05:50:00.795Z,21.7
2023-01-01T05:51:00.624Z,20.7
2023-01-01T05:52:00.636Z,20.1
2023-01-01T05:53:00.715Z,18.9
2023-01-01T05:54:00.768Z,18.3
2023-01-01T05:55:00.643Z,17.7
2023-01-01T05:56:00.667Z,17.2
2023-01-01T05:57:00.691Z,16.7
2023-01-01T05:58:00.741Z,16.2
2023-01-01T05:59:00.723Z,15.5
2023-01-01T06:00:00.854Z,15.2
2023-01-01T06:01:00.825Z,14.8
2023-01-01T06:02:00.721Z,14.2
2023-01-01T06:03:00.641Z,13.2
2023-01-01T06:04:00.755Z,12.5
2023-01-01T06:05:00.680Z,12.4
2023-01-01T06:06:00.756Z,12.2
2023-01-01T06:07:00.654Z,12.5
2023-01-01T06:08:01.048Z,12.2
2023-01-01T06:09:00.952Z,12.1
2023-01-01T06:10:00.810Z,12.5
2023-01-01T06:11:00.734Z,12.1
2023-01-01T06:12:00.804Z,11.9
2023-01-01T06:13:00.666Z,11.6
2023-01-01T06:14:00.636Z,11.6
2023-01-01T06:15:00.609Z,11.5
2023-01-01T06:16:00.805Z,11.6
2023-01-01T06:17:00.707Z,11.0
2023-01-01T06:18:00.723Z,10.6
2023-01-01T06:19:00.707Z,10.6
2023-01-01T06:20:00.640Z,10.7
2023-01-01T06:21:00.656Z,11.2
2023-01-01T06:22:00.643Z,12.4
2023-01-01T06:23:00.825Z,15.3
2023-01-01T06:24:00.896Z,17.0
2023-01-01T06:25:00.715Z,18.6
2023-01-01T06:26:00.669Z,20.3
2023-01-01T06:27:00.753Z,22.0
2023-01-01T06:28:00.705Z,23.2
2023-01-01T06:29:00.715Z,24.2
2023-01-01T06:30:00.863Z,25.1
2023-01-01T06:31:00.778Z,25.8
2023-01-01T06:32:00.738Z,26.7
2023-01-01T06:33:00.605Z,27.8
2023-01-01T06:34:00.660Z,29.0
2023-01-01T06:35:00.635Z,29.8
2023-01-01T06:36:00.829Z,30.0
2023-01-01T06:37:06.501Z,30.3
2023-01-01T06:38:00.634Z,30.9
2023-01-01T06:39:00.615Z,31.5
2023-01-01T06:40:00.735Z,31.7
2023-01-01T06:41:00.712Z,31.8
2023-01-01T06:42:00.906Z,31.7
2023-01-01T06:43:00.633Z,32.0
2023-01-01T06:44:00.674Z,32.0
2023-01-01T06:45:00.622Z,31.9
2023-01-01T06:46:00.642Z,32.3
2023-01-01T06:47:00.815Z,32.5
2023-01-01T06:48:00.787Z,32.6
2023-01-01T06:49:00.643Z,32.9
2023-01-01T06:50:00.693Z,33.3
2023-01-01T06:51:00.726Z,33.4
2023-01-01T06:52:00.620Z,33.2
2023-01-01T06:53:00.758Z,33.7
2023-01-01T06:54:00.784Z,33.7
2023-01-01T06:55:00.676Z,33.9
2023-01-01T06:56:00.739Z,33.8
2023-01-01T06:57:00.825Z,33.9
2023-01-01T06:58:00.846Z,33.9
2023-01-01T06:59:00.825Z,34.0
2023-01-01T07:00:01.012Z,34.2
2023-01-01T07:01:06.335Z,34.4
2023-01-01T07:02:01.518Z,34.5
2023-01-01T07:03:00.922Z,34.5
2023-01-01T07:04:00.700Z,34.9
2023-01-01T07:05:00.691Z,35.0
2023-01-01T07:06:00.808Z,35.0
2023-01-01T07:07:00.618Z,35.1
2023-01-01T07:08:00.637Z,35.3
2023-01-01T07:09:00.679Z,35.5
2023-01-01T07:10:00.664Z,35.6
2023-01-01T07:11:00.676Z,35.5
2023-01-01T07:12:00.781Z,35.7
2023-01-01T07:13:00.709Z,35.7
2023-01-01T07:14:00.680Z,35.7
2023-01-01T07:15:00.637Z,35.6
2023-01-01T07:16:00.825Z,35.8
2023-01-01T07:17:00.740Z,35.9
2023-01-01T07:18:00.807Z,36.2
2023-01-01T07:19:00.640Z,36.2
2023-01-01T07:20:00.652Z,36.2
2023-01-01T07:21:00.643Z,36.2
2023-01-01T07:22:00.639Z,36.5
2023-01-01T07:23:00.638Z,36.5
2023-01-01T07:24:00.849Z,36.6
2023-01-01T07:25:00.731Z,36.8
2023-01-01T07:26:00.667Z,37.1
2023-01-01T07:27:00.695Z,37.0
2023-01-01T07:28:00.734Z,37.0
2023-01-01T07:29:06.905Z,37.1
2023-01-01T07:30:00.775Z,37.2
2023-01-01T07:31:00.704Z,37.4
2023-01-01T07:32:00.709Z,37.5
2023-01-01T07:33:00.830Z,37.6
2023-01-01T07:34:00.931Z,37.4
2023-01-01T07:35:00.680Z,38.1
2023-01-01T07:36:00.799Z,37.5
2023-01-01T07:37:00.682Z,37.4
2023-01-01T07:38:00.672Z,37.3
2023-01-01T07:39:00.660Z,37.4
2023-01-01T07:40:00.683Z,37.2
2023-01-01T07:41:00.751Z,37.3
2023-01-01T07:42:04.862Z,37.1
2023-01-01T07:43:00.639Z,37.2
2023-01-01T07:44:00.644Z,37.5
2023-01-01T07:45:00.649Z,37.6
2023-01-01T07:46:00.702Z,37.5
2023-01-01T07:47:00.613Z,37.3
2023-01-01T07:48:00.890Z,37.3
2023-01-01T07:49:00.735Z,37.4
2023-01-01T07:50:00.669Z,37.3
2023-01-01T07:51:00.662Z,36.9
2023-01-01T07:52:00.663Z,36.8
2023-01-01T07:53:00.643Z,36.7
2023-01-01T07:54:06.639Z,36.5
2023-01-01T07:55:00.658Z,36.6
2023-01-01T07:56:00.630Z,36.8
2023-01-01T07:57:00.620Z,37.0
2023-01-01T07:58:00.663Z,37.0
2023-01-01T07:59:00.683Z,37.4
2023-01-01T08:00:00.781Z,37.5
2023-01-01T08:01:00.732Z,37.5
2023-01-01T08:02:00.732Z,37.6
2023-01-01T08:03:00.851Z,37.4
2023-01-01T08:04:00.815Z,36.9
2023-01-01T08:05:00.808Z,37.0
2023-01-01T08:06:00.788Z,36.7
2023-01-01T08:07:00.605Z,36.4
2023-01-01T08:08:00.643Z,36.7
2023-01-01T08:09:00.619Z,36.8
2023-01-01T08:10:00.677Z,37.0
2023-01-01T08:11:03.786Z,37.0
2023-01-01T08:12:00.763Z,37.2
2023-01-01T08:13:00.713Z,37.0
2023-01-01T08:14:00.673Z,38.0
2023-01-01T08:15:00.753Z,41.0
2023-01-01T08:16:00.884Z,40.6
2023-01-01T08:17:00.637Z,38.7
2023-01-01T08:18:00.818Z,37.3
2023-01-01T08:19:00.692Z,37.1
2023-01-01T08:20:00.908Z,36.9
2023-01-01T08:21:00.639Z,36.9
2023-01-01T08:22:00.675Z,36.9
2023-01-01T08:23:06.603Z,37.0
2023-01-01T08:24:00.791Z,37.2
2023-01-01T08:25:00.676Z,37.2
2023-01-01T08:26:00.653Z,37.2
2023-01-01T08:27:00.645Z,37.2
2023-01-01T08:28:00.636Z,36.9
2023-01-01T08:29:00.677Z,37.1
2023-01-01T08:30:00.754Z,36.5
2023-01-01T08:31:00.812Z,33.6
2023-01-01T08:32:00.618Z,28.2
2023-01-01T08:33:01.086Z,24.1
2023-01-01T08:34:00.642Z,22.3
2023-01-01T08:35:00.847Z,19.7
2023-01-01T08:36:00.750Z,17.6
2023-01-01T08:37:00.632Z,14.9
2023-01-01T08:38:00.632Z,14.6
2023-01-01T08:39:00.644Z,14.0
2023-01-01T08:40:00.662Z,13.2
2023-01-01T08:41:00.622Z,13.3
2023-01-01T08:42:00.758Z,12.7
2023-01-01T08:43:00.612Z,11.1
2023-01-01T08:44:00.637Z,10.9
2023-01-01T08:45:00.672Z,10.7
2023-01-01T08:46:00.644Z,10.2
2023-01-01T08:47:00.725Z,10.6
2023-01-01T08:48:00.839Z,10.2
2023-01-01T08:49:00.678Z,9.8
2023-01-01T08:50:00.948Z,10.3
2023-01-01T08:51:00.657Z,10.2
2023-01-01T08:52:00.792Z,10.6
2023-01-01T08:53:00.732Z,10.3
2023-01-01T08:54:00.957Z,9.6
2023-01-01T08:55:00.697Z,10.0
2023-01-01T08:56:00.653Z,9.3
2023-01-01T08:57:00.624Z,8.9
2023-01-01T08:58:00.694Z,8.3
2023-01-01T08:59:04.085Z,8.6
2023-01-01T09:00:00.813Z,7.8
2023-01-01T09:01:00.651Z,8.9
2023-01-01T09:02:00.895Z,8.8
2023-01-01T09:03:00.773Z,7.9
2023-01-01T09:04:00.740Z,8.0
2023-01-01T09:05:00.857Z,8.5
2023-01-01T09:06:00.915Z,8.5
2023-01-01T09:07:00.682Z,8.1
2023-01-01T09:08:00.680Z,7.8
2023-01-01T09:09:00.809Z,8.1
2023-01-01T09:10:00.722Z,8.0
2023-01-01T09:11:00.652Z,7.6
2023-01-01T09:12:00.821Z,8.4
2023-01-01T09:13:00.700Z,8.4
2023-01-01T09:14:00.907Z,8.2
2023-01-01T09:15:00.815Z,8.2
2023-01-01T09:16:00.823Z,7.6
2023-01-01T09:17:00.665Z,7.6
2023-01-01T09:18:00.867Z,7.3
2023-01-01T09:19:00.650Z,8.0
2023-01-01T09:20:00.883Z,8.0
2023-01-01T09:21:00.971Z,7.6
2023-01-01T09:22:00.696Z,7.7
2023-01-01T09:23:05.628Z,7.8
2023-01-01T09:24:00.874Z,7.9
2023-01-01T09:25:00.660Z,7.3
2023-01-01T09:26:00.698Z,7.6
2023-01-01T09:27:00.714Z,7.7
2023-01-01T09:28:00.732Z,7.4
2023-01-01T09:29:00.699Z,7.6
2023-01-01T09:30:00.956Z,7.2
2023-01-01T09:31:00.718Z,7.4
2023-01-01T09:32:00.799Z,7.5
2023-01-01T09:33:00.626Z,7.3
2023-01-01T09:34:00.754Z,7.0
2023-01-01T09:35:00.679Z,7.3
2023-01-01T09:36:00.836Z,6.9
2023-01-01T09:37:00.768Z,7.5
2023-01-01T09:38:00.637Z,7.2
2023-01-01T09:39:00.670Z,7.4
2023-01-01T09:40:00.696Z,6.1
2023-01-01T09:41:00.690Z,6.9
2023-01-01T09:42:00.799Z,7.1
2023-01-01T09:43:00.711Z,7.4
2023-01-01T09:44:00.641Z,7.9
2023-01-01T09:45:00.655Z,7.0
2023-01-01T09:46:00.666Z,7.3
2023-01-01T09:47:00.656Z,7.5
2023-01-01T09:48:00.747Z,7.6
2023-01-01T09:49:00.640Z,7.3
2023-01-01T09:50:00.695Z,6.8
2023-01-01T09:51:01.090Z,6.7
2023-01-01T09:52:00.779Z,7.1
2023-01-01T09:53:00.612Z,6.9
2023-01-01T09:54:00.781Z,6.9
2023-01-01T09:55:00.666Z,6.9
2023-01-01T09:56:00.729Z,7.0
2023-01-01T09:57:00.735Z,6.8
2023-01-01T09:58:00.815Z,6.7
2023-01-01T09:59:00.670Z,6.0
2023-01-01T10:00:00.887Z,6.6
2023-01-01T10:01:00.783Z,6.5
2023-01-01T10:02:00.861Z,6.6
2023-01-01T10:03:00.746Z,6.5
2023-01-01T10:04:00.701Z,7.2
2023-01-01T10:05:00.657Z,6.7
2023-01-01T10:06:00.930Z,6.8
2023-01-01T10:07:00.775Z,7.4
2023-01-01T10:08:00.700Z,7.3
2023-01-01T10:09:00.706Z,7.3
2023-01-01T10:10:00.668Z,6.3
2023-01-01T10:11:00.937Z,6.5
2023-01-01T10:12:01.185Z,6.4
2023-01-01T10:13:00.858Z,6.4
2023-01-01T10:14:01.019Z,6.7
2023-01-01T10:15:01.250Z,6.7
2023-01-01T10:16:01.022Z,6.6
2023-01-01T10:17:01.000Z,6.4
2023-01-01T10:18:01.030Z,6.9
2023-01-01T10:19:00.942Z,6.6
2023-01-01T10:20:01.060Z,6.7
2023-01-01T10:21:00.861Z,6.9
2023-01-01T10:22:01.200Z,7.0
2023-01-01T10:23:01.063Z,7.2
2023-01-01T10:24:01.410Z,7.6
2023-01-01T10:25:00.686Z,7.8
2023-01-01T10:26:00.649Z,8.1
2023-01-01T10:27:00.663Z,8.3
2023-01-01T10:28:00.611Z,7.9
2023-01-01T10:29:00.709Z,8.0
2023-01-01T10:30:04.358Z,8.3
2023-01-01T10:31:00.694Z,8.5
2023-01-01T10:32:00.746Z,8.1
2023-01-01T10:33:00.614Z,8.2
2023-01-01T10:34:00.684Z,8.4
2023-01-01T10:35:00.671Z,8.7
2023-01-01T10:36:00.808Z,8.3
2023-01-01T10:37:01.168Z,8.5
2023-01-01T10:38:00.731Z,8.2
2023-01-01T10:39:00.639Z,8.4
2023-01-01T10:40:00.644Z,8.4
2023-01-01T10:41:00.667Z,8.5
2023-01-01T10:42:00.816Z,8.6
2023-01-01T10:43:00.651Z,9.0
2023-01-01T10:44:00.611Z,9.1
2023-01-01T10:45:00.756Z,9.0
2023-01-01T10:46:00.745Z,8.7
2023-01-01T10:47:00.679Z,9.2
2023-01-01T10:48:00.948Z,9.4
2023-01-01T10:49:00.679Z,9.0
2023-01-01T10:50:00.672Z,9.1
2023-01-01T10:51:00.811Z,9.4
2023-01-01T10:52:01.095Z,9.3
2023-01-01T10:53:00.634Z,9.4
2023-01-01T10:54:01.012Z,9.1
2023-01-01T10:55:00.675Z,9.1
2023-01-01T10:56:00.640Z,9.1
2023-01-01T10:57:00.645Z,8.8
2023-01-01T10:58:00.643Z,8.6
2023-01-01T10:59:00.643Z,9.3
2023-01-01T11:00:01.332Z,9.6
2023-01-01T11:01:00.958Z,9.9
2023-01-01T11:02:00.896Z,9.7
2023-01-01T11:03:00.680Z,9.7
2023-01-01T11:04:00.669Z,9.8
2023-01-01T11:05:04.274Z,9.3
2023-01-01T11:06:01.080Z,9.2
2023-01-01T11:07:01.017Z,9.0
2023-01-01T11:08:00.692Z,9.4
2023-01-01T11:09:00.717Z,10.0
2023-01-01T11:10:03.701Z,10.6
2023-01-01T11:11:00.753Z,11.1
2023-01-01T11:12:07.122Z,11.1
2023-01-01T11:13:05.539Z,11.5
2023-01-01T11:14:00.641Z,12.8
2023-01-01T11:15:00.704Z,13.2
2023-01-01T11:16:00.680Z,12.8
2023-01-01T11:17:00.735Z,12.5
2023-01-01T11:18:01.002Z,12.1
2023-01-01T11:19:00.831Z,13.1
2023-01-01T11:20:02.437Z,14.9
2023-01-01T11:21:00.779Z,17.1
2023-01-01T11:22:00.982Z,19.0
2023-01-01T11:23:00.631Z,20.2
2023-01-01T11:24:00.975Z,21.5
2023-01-01T11:25:00.728Z,22.8
2023-01-01T11:26:00.675Z,23.7
2023-01-01T11:27:00.723Z,24.2
2023-01-01T11:28:00.684Z,24.9
2023-01-01T11:29:00.657Z,28.8
2023-01-01T11:30:00.872Z,26.8
2023-01-01T11:31:00.734Z,26.3
2023-01-01T11:32:00.979Z,26.4
2023-01-01T11:33:00.716Z,26.5
2023-01-01T11:34:00.687Z,26.3
2023-01-01T11:35:00.730Z,26.5
2023-01-01T11:36:00.892Z,27.0
2023-01-01T11:37:00.772Z,27.0
2023-01-01T11:38:00.808Z,26.8
2023-01-01T11:39:00.651Z,26.7
2023-01-01T11:40:00.691Z,26.9
2023-01-01T11:41:00.682Z,27.4
2023-01-01T11:42:00.847Z,27.6
2023-01-01T11:43:00.677Z,27.8
2023-01-01T11:44:00.739Z,28.0
2023-01-01T11:45:00.701Z,27.9
2023-01-01T11:46:00.755Z,27.9
2023-01-01T11:47:00.692Z,27.9
2023-01-01T11:48:00.880Z,27.8
2023-01-01T11:49:00.713Z,27.9
2023-01-01T11:50:00.898Z,27.6
2023-01-01T11:51:00.676Z,27.9
2023-01-01T11:52:00.953Z,28.3
2023-01-01T11:53:00.644Z,28.3
2023-01-01T11:54:00.878Z,28.2
2023-01-01T11:55:00.904Z,28.3
2023-01-01T11:56:00.640Z,28.5
2023-01-01T11:57:00.658Z,28.5
2023-01-01T11:58:00.639Z,28.6
2023-01-01T11:59:00.645Z,28.5
2023-01-01T12:00:01.015Z,28.4
2023-01-01T12:01:00.661Z,28.3
2023-01-01T12:02:00.613Z,28.5
2023-01-01T12:03:00.704Z,28.7
2023-01-01T12:04:00.725Z,28.7
2023-01-01T12:05:00.632Z,28.7
2023-01-01T12:06:00.795Z,28.6
2023-01-01T12:07:01.071Z,28.5
2023-01-01T12:08:00.777Z,28.6
2023-01-01T12:09:00.668Z,28.6
2023-01-01T12:10:00.676Z,28.6
2023-01-01T12:11:00.667Z,28.5
2023-01-01T12:12:00.860Z,30.8
2023-01-01T12:13:00.652Z,29.1
2023-01-01T12:14:00.773Z,29.2
2023-01-01T12:15:00.685Z,29.2
2023-01-01T12:16:00.762Z,29.0
2023-01-01T12:17:00.758Z,28.7
2023-01-01T12:18:01.026Z,29.2
2023-01-01T12:19:00.838Z,29.2
2023-01-01T12:20:00.841Z,29.5
2023-01-01T12:21:00.846Z,29.6
2023-01-01T12:22:00.981Z,29.4
2023-01-01T12:23:00.617Z,29.4
2023-01-01T12:24:01.064Z,29.7
2023-01-01T12:25:00.716Z,29.9
2023-01-01T12:26:00.668Z,29.8
2023-01-01T12:27:05.226Z,29.9
2023-01-01T12:28:00.642Z,29.8
2023-01-01T12:29:00.667Z,29.8
2023-01-01T12:30:01.956Z,30.1
2023-01-01T12:31:00.705Z,30.0
2023-01-01T12:32:00.664Z,30.3
2023-01-01T12:33:07.335Z,30.5
2023-01-01T12:34:00.626Z,30.8
2023-01-01T12:35:00.642Z,30.7
2023-01-01T12:36:00.819Z,30.6
2023-01-01T12:37:00.811Z,30.5
2023-01-01T12:38:00.623Z,30.7
2023-01-01T12:39:00.673Z,30.9
2023-01-01T12:40:00.680Z,31.2
2023-01-01T12:41:00.661Z,31.1
2023-01-01T12:42:01.200Z,31.5
2023-01-01T12:43:00.683Z,31.4
2023-01-01T12:44:00.672Z,31.5
2023-01-01T12:45:00.911Z,31.3
2023-01-01T12:46:00.908Z,31.2
2023-01-01T12:47:00.603Z,31.3
2023-01-01T12:48:00.830Z,31.2
2023-01-01T12:49:00.637Z,31.2
2023-01-01T12:50:00.621Z,31.2
2023-01-01T12:51:05.201Z,31.2
2023-01-01T12:52:00.815Z,31.1
2023-01-01T12:53:00.639Z,31.1
2023-01-01T12:54:00.795Z,31.0
2023-01-01T12:55:00.661Z,30.9
2023-01-01T12:56:00.701Z,30.8
2023-01-01T12:57:00.664Z,31.0
2023-01-01T12:58:00.643Z,30.9
2023-01-01T12:59:00.614Z,31.2
2023-01-01T13:00:01.009Z,30.9
2023-01-01T13:01:00.745Z,31.3
2023-01-01T13:02:00.897Z,31.4
2023-01-01T13:03:00.739Z,31.3
2023-01-01T13:04:00.672Z,31.1
2023-01-01T13:05:00.670Z,31.5
2023-01-01T13:06:00.823Z,31.7
2023-01-01T13:07:00.780Z,31.8
2023-01-01T13:08:00.664Z,31.6
2023-01-01T13:09:00.639Z,31.7
2023-01-01T13:10:00.672Z,31.6
2023-01-01T13:11:00.745Z,31.4
2023-01-01T13:12:00.868Z,31.5
2023-01-01T13:13:00.744Z,31.5
2023-01-01T13:14:00.686Z,31.6
2023-01-01T13:15:00.701Z,31.7
2023-01-01T13:16:00.691Z,31.6
2023-01-01T13:17:00.615Z,31.5
2023-01-01T13:18:00.779Z,31.5
2023-01-01T13:19:02.856Z,31.7
2023-01-01T13:20:00.638Z,31.8
2023-01-01T13:21:00.656Z,31.9
2023-01-01T13:22:00.746Z,31.6
2023-01-01T13:23:00.771Z,31.0
2023-01-01T13:24:00.913Z,30.3
2023-01-01T13:25:00.641Z,29.5